sensor_id;sensor_type;location;lat;lon;timestamp;pressure;altitude;pressure_sealevel;temperature;humidity
57600;BME280;43426;43.594;24.334;2023-09-12T00:00:05;101190.50;;;14.10;72.77
57600;BME280;43426;43.594;24.334;2023-09-12T00:02:31;101191.47;;;13.94;73.39
57600;BME280;43426;43.594;24.334;2023-09-12T00:04:56;101192.56;;;13.85;74.49
57600;BME280;43426;43.594;24.334;2023-09-12T00:07:21;101190.38;;;13.80;74.84
57600;BME280;43426;43.594;24.334;2023-09-12T00:09:46;101198.34;;;13.82;75.08
57600;BME280;43426;43.594;24.334;2023-09-12T00:12:15;101187.78;;;13.87;75.25
57600;BME280;43426;43.594;24.334;2023-09-12T00:14:40;101186.84;;;13.79;75.45
57600;BME280;43426;43.594;24.334;2023-09-12T00:17:06;101183.28;;;13.79;75.50
57600;BME280;43426;43.594;24.334;2023-09-12T00:19:31;101184.78;;;13.82;75.27
57600;BME280;43426;43.594;24.334;2023-09-12T00:21:56;101182.13;;;13.96;74.97
57600;BME280;43426;43.594;24.334;2023-09-12T00:24:21;101174.41;;;14.08;74.03
57600;BME280;43426;43.594;24.334;2023-09-12T00:26:47;101180.00;;;14.07;73.21
57600;BME280;43426;43.594;24.334;2023-09-12T00:29:12;101178.50;;;14.04;73.09
57600;BME280;43426;43.594;24.334;2023-09-12T00:31:37;101188.75;;;13.94;73.66
57600;BME280;43426;43.594;24.334;2023-09-12T00:34:03;101180.16;;;13.90;73.81
57600;BME280;43426;43.594;24.334;2023-09-12T00:36:28;101182.66;;;13.92;73.77
57600;BME280;43426;43.594;24.334;2023-09-12T00:38:53;101182.59;;;14.00;73.49
57600;BME280;43426;43.594;24.334;2023-09-12T00:41:18;101178.88;;;14.01;73.81
57600;BME280;43426;43.594;24.334;2023-09-12T00:43:44;101190.06;;;13.98;73.80
57600;BME280;43426;43.594;24.334;2023-09-12T00:46:09;101188.63;;;13.87;74.12
57600;BME280;43426;43.594;24.334;2023-09-12T00:48:34;101186.84;;;13.79;74.97
57600;BME280;43426;43.594;24.334;2023-09-12T00:51:02;101185.13;;;13.78;75.09
57600;BME280;43426;43.594;24.334;2023-09-12T00:53:28;101187.22;;;13.76;73.66
57600;BME280;43426;43.594;24.334;2023-09-12T00:55:54;101186.53;;;13.74;73.84
57600;BME280;43426;43.594;24.334;2023-09-12T00:58:21;101186.91;;;13.71;74.06
57600;BME280;43426;43.594;24.334;2023-09-12T01:00:47;101184.19;;;13.71;74.64
57600;BME280;43426;43.594;24.334;2023-09-12T01:03:13;101189.84;;;13.61;74.65
57600;BME280;43426;43.594;24.334;2023-09-12T01:05:38;101197.25;;;13.68;74.80
57600;BME280;43426;43.594;24.334;2023-09-12T01:08:03;101196.09;;;13.62;74.86
57600;BME280;43426;43.594;24.334;2023-09-12T01:10:29;101193.56;;;13.60;75.01
57600;BME280;43426;43.594;24.334;2023-09-12T01:12:54;101198.63;;;13.40;76.30
57600;BME280;43426;43.594;24.334;2023-09-12T01:15:20;101202.00;;;13.34;77.02
57600;BME280;43426;43.594;24.334;2023-09-12T01:17:45;101203.06;;;13.25;77.52
57600;BME280;43426;43.594;24.334;2023-09-12T01:20:16;101202.34;;;13.39;77.70
57600;BME280;43426;43.594;24.334;2023-09-12T01:28:07;101197.34;;;13.20;78.05
57600;BME280;43426;43.594;24.334;2023-09-12T01:30:34;101200.28;;;13.10;78.77
57600;BME280;43426;43.594;24.334;2023-09-12T01:32:59;101200.09;;;13.11;78.57
57600;BME280;43426;43.594;24.334;2023-09-12T01:35:25;101202.00;;;13.34;77.25
57600;BME280;43426;43.594;24.334;2023-09-12T01:37:50;101204.25;;;13.31;77.20
57600;BME280;43426;43.594;24.334;2023-09-12T01:40:16;101200.03;;;13.28;77.26
57600;BME280;43426;43.594;24.334;2023-09-12T01:42:45;101196.44;;;13.36;76.92
57600;BME280;43426;43.594;24.334;2023-09-12T01:45:11;101201.22;;;13.25;77.18
57600;BME280;43426;43.594;24.334;2023-09-12T01:47:38;101198.72;;;13.47;75.93
57600;BME280;43426;43.594;24.334;2023-09-12T01:50:05;101203.25;;;13.23;76.40
57600;BME280;43426;43.594;24.334;2023-09-12T01:52:30;101197.34;;;13.20;76.58
57600;BME280;43426;43.594;24.334;2023-09-12T01:54:56;101202.81;;;13.11;76.87
57600;BME280;43426;43.594;24.334;2023-09-12T01:57:22;101206.22;;;13.05;77.33
57600;BME280;43426;43.594;24.334;2023-09-12T01:59:48;101210.47;;;13.00;77.40
57600;BME280;43426;43.594;24.334;2023-09-12T02:02:14;101207.28;;;12.96;77.43
57600;BME280;43426;43.594;24.334;2023-09-12T02:04:40;101208.31;;;12.87;78.00
57600;BME280;43426;43.594;24.334;2023-09-12T02:07:05;101206.44;;;12.87;78.37
57600;BME280;43426;43.594;24.334;2023-09-12T02:09:30;101218.31;;;12.86;79.10
57600;BME280;43426;43.594;24.334;2023-09-12T02:11:55;101216.28;;;12.88;79.27
57600;BME280;43426;43.594;24.334;2023-09-12T02:14:21;101207.19;;;12.73;79.73
57600;BME280;43426;43.594;24.334;2023-09-12T02:16:46;101210.25;;;12.70;80.06
57600;BME280;43426;43.594;24.334;2023-09-12T02:19:11;101209.16;;;12.87;79.33
57600;BME280;43426;43.594;24.334;2023-09-12T02:21:37;101207.28;;;12.96;78.98
57600;BME280;43426;43.594;24.334;2023-09-12T02:24:02;101208.28;;;12.95;78.77
57600;BME280;43426;43.594;24.334;2023-09-12T02:26:27;101213.50;;;13.05;77.98
57600;BME280;43426;43.594;24.334;2023-09-12T02:28:53;101208.78;;;12.99;78.03
57600;BME280;43426;43.594;24.334;2023-09-12T02:31:18;101216.28;;;12.88;77.86
57600;BME280;43426;43.594;24.334;2023-09-12T02:33:43;101211.91;;;12.71;78.19
57600;BME280;43426;43.594;24.334;2023-09-12T02:36:08;101208.56;;;12.60;78.55
57600;BME280;43426;43.594;24.334;2023-09-12T02:38:34;101210.75;;;12.57;78.96
57600;BME280;43426;43.594;24.334;2023-09-12T02:40:59;101210.63;;;12.50;79.20
57600;BME280;43426;43.594;24.334;2023-09-12T02:43:24;101208.75;;;12.59;79.41
57600;BME280;43426;43.594;24.334;2023-09-12T02:45:49;101203.69;;;12.56;79.84
57600;BME280;43426;43.594;24.334;2023-09-12T02:48:15;101199.91;;;12.73;79.20
57600;BME280;43426;43.594;24.334;2023-09-12T02:50:40;101202.25;;;12.76;79.58
57600;BME280;43426;43.594;24.334;2023-09-12T02:53:05;101201.94;;;12.71;79.86
57600;BME280;43426;43.594;24.334;2023-09-12T02:55:31;101201.41;;;12.76;79.80
57600;BME280;43426;43.594;24.334;2023-09-12T02:57:56;101201.25;;;12.77;79.59
57600;BME280;43426;43.594;24.334;2023-09-12T03:00:22;101197.38;;;12.72;79.57
57600;BME280;43426;43.594;24.334;2023-09-12T03:02:47;101198.91;;;12.66;79.39
57600;BME280;43426;43.594;24.334;2023-09-12T03:05:12;101198.88;;;12.74;77.23
57600;BME280;43426;43.594;24.334;2023-09-12T03:07:38;101203.00;;;12.54;77.58
57600;BME280;43426;43.594;24.334;2023-09-12T03:10:03;101204.34;;;12.50;76.59
57600;BME280;43426;43.594;24.334;2023-09-12T03:12:28;101210.81;;;12.32;76.52
57600;BME280;43426;43.594;24.334;2023-09-12T03:14:54;101204.22;;;12.18;77.67
57600;BME280;43426;43.594;24.334;2023-09-12T03:17:19;101205.63;;;12.06;78.75
57600;BME280;43426;43.594;24.334;2023-09-12T03:19:45;101202.19;;;12.29;78.93
57600;BME280;43426;43.594;24.334;2023-09-12T03:22:10;101206.63;;;12.21;79.34
57600;BME280;43426;43.594;24.334;2023-09-12T03:24:35;101203.06;;;12.13;80.03
57600;BME280;43426;43.594;24.334;2023-09-12T03:27:00;101217.25;;;12.06;80.60
57600;BME280;43426;43.594;24.334;2023-09-12T03:29:26;101209.31;;;12.05;80.78
57600;BME280;43426;43.594;24.334;2023-09-12T03:31:51;101222.84;;;12.05;81.38
57600;BME280;43426;43.594;24.334;2023-09-12T03:34:16;101220.63;;;12.08;81.67
57600;BME280;43426;43.594;24.334;2023-09-12T03:36:41;101220.97;;;12.05;81.96
57600;BME280;43426;43.594;24.334;2023-09-12T03:39:07;101223.81;;;11.87;82.47
57600;BME280;43426;43.594;24.334;2023-09-12T03:41:34;101218.41;;;11.79;83.06
57600;BME280;43426;43.594;24.334;2023-09-12T03:43:59;101223.13;;;11.69;83.47
57600;BME280;43426;43.594;24.334;2023-09-12T03:46:24;101227.34;;;11.88;83.60
57600;BME280;43426;43.594;24.334;2023-09-12T03:48:50;101234.47;;;11.89;83.78
57600;BME280;43426;43.594;24.334;2023-09-12T03:51:15;101226.34;;;11.89;83.54
57600;BME280;43426;43.594;24.334;2023-09-12T03:53:40;101232.09;;;11.86;83.60
57600;BME280;43426;43.594;24.334;2023-09-12T03:56:06;101223.16;;;11.93;83.30
57600;BME280;43426;43.594;24.334;2023-09-12T03:58:31;101232.97;;;12.03;82.81
57600;BME280;43426;43.594;24.334;2023-09-12T04:00:57;101232.25;;;11.76;83.62
57600;BME280;43426;43.594;24.334;2023-09-12T04:03:22;101236.13;;;11.65;84.68
57600;BME280;43426;43.594;24.334;2023-09-12T04:05:47;101236.97;;;11.74;82.79
57600;BME280;43426;43.594;24.334;2023-09-12T04:08:13;101238.50;;;11.76;81.89
57600;BME280;43426;43.594;24.334;2023-09-12T04:10:38;101237.47;;;11.69;82.53
57600;BME280;43426;43.594;24.334;2023-09-12T04:13:04;101234.13;;;11.75;83.29
57600;BME280;43426;43.594;24.334;2023-09-12T04:15:29;101243.56;;;11.71;83.61
57600;BME280;43426;43.594;24.334;2023-09-12T04:17:54;101239.84;;;11.72;83.88
57600;BME280;43426;43.594;24.334;2023-09-12T04:20:19;101238.88;;;11.90;83.86
57600;BME280;43426;43.594;24.334;2023-09-12T04:22:45;101243.94;;;11.93;83.79
57600;BME280;43426;43.594;24.334;2023-09-12T04:25:10;101247.34;;;11.95;84.22
57600;BME280;43426;43.594;24.334;2023-09-12T04:27:35;101243.47;;;11.98;84.30
57600;BME280;43426;43.594;24.334;2023-09-12T04:30:01;101242.28;;;12.00;83.94
57600;BME280;43426;43.594;24.334;2023-09-12T04:32:27;101239.25;;;12.28;82.33
57600;BME280;43426;43.594;24.334;2023-09-12T04:34:52;101241.78;;;12.21;82.29
57600;BME280;43426;43.594;24.334;2023-09-12T04:37:17;101247.50;;;12.18;83.01
57600;BME280;43426;43.594;24.334;2023-09-12T04:39:43;101245.66;;;12.19;82.95
57600;BME280;43426;43.594;24.334;2023-09-12T04:42:08;101251.09;;;12.19;83.28
57600;BME280;43426;43.594;24.334;2023-09-12T04:44:38;101249.03;;;12.21;83.42
57600;BME280;43426;43.594;24.334;2023-09-12T04:47:04;101251.75;;;12.29;83.23
57600;BME280;43426;43.594;24.334;2023-09-12T04:49:29;101247.31;;;12.44;83.31
57600;BME280;43426;43.594;24.334;2023-09-12T04:51:54;101250.38;;;12.50;83.20
57600;BME280;43426;43.594;24.334;2023-09-12T04:54:20;101257.97;;;12.63;83.32
57600;BME280;43426;43.594;24.334;2023-09-12T04:56:45;101249.31;;;12.75;83.07
57600;BME280;43426;43.594;24.334;2023-09-12T04:59:10;101250.09;;;13.01;82.50
57600;BME280;43426;43.594;24.334;2023-09-12T05:01:35;101258.63;;;13.21;81.73
57600;BME280;43426;43.594;24.334;2023-09-12T05:04:01;101258.94;;;13.34;81.01
57600;BME280;43426;43.594;24.334;2023-09-12T05:06:27;101261.94;;;13.48;81.02
57600;BME280;43426;43.594;24.334;2023-09-12T05:08:53;101250.34;;;13.62;80.34
57600;BME280;43426;43.594;24.334;2023-09-12T05:11:18;101255.97;;;13.84;79.58
57600;BME280;43426;43.594;24.334;2023-09-12T05:13:43;101251.09;;;14.02;79.22
57600;BME280;43426;43.594;24.334;2023-09-12T05:16:09;101250.78;;;14.20;78.44
57600;BME280;43426;43.594;24.334;2023-09-12T05:18:34;101252.75;;;14.50;77.46
57600;BME280;43426;43.594;24.334;2023-09-12T05:20:59;101250.84;;;14.73;76.57
57600;BME280;43426;43.594;24.334;2023-09-12T05:23:24;101235.47;;;14.80;75.63
57600;BME280;43426;43.594;24.334;2023-09-12T05:25:50;101252.41;;;15.12;74.92
57600;BME280;43426;43.594;24.334;2023-09-12T05:28:15;101251.84;;;15.32;73.56
57600;BME280;43426;43.594;24.334;2023-09-12T05:30:44;101255.91;;;15.58;72.20
57600;BME280;43426;43.594;24.334;2023-09-12T05:33:14;101257.44;;;15.82;70.96
57600;BME280;43426;43.594;24.334;2023-09-12T05:35:39;101261.03;;;16.04;69.89
57600;BME280;43426;43.594;24.334;2023-09-12T05:38:05;101253.28;;;16.29;68.63
57600;BME280;43426;43.594;24.334;2023-09-12T05:40:30;101258.50;;;16.52;67.46
57600;BME280;43426;43.594;24.334;2023-09-12T05:42:55;101256.63;;;16.81;66.67
57600;BME280;43426;43.594;24.334;2023-09-12T05:45:21;101256.22;;;17.19;65.57
57600;BME280;43426;43.594;24.334;2023-09-12T05:47:46;101262.66;;;17.53;64.28
57600;BME280;43426;43.594;24.334;2023-09-12T05:50:13;101254.16;;;17.90;62.96
57600;BME280;43426;43.594;24.334;2023-09-12T05:52:38;101260.31;;;18.26;61.88
57600;BME280;43426;43.594;24.334;2023-09-12T05:55:03;101256.31;;;18.55;61.61
57600;BME280;43426;43.594;24.334;2023-09-12T05:57:30;101256.69;;;18.85;59.69
57600;BME280;43426;43.594;24.334;2023-09-12T05:59:58;101256.69;;;19.12;58.97
57600;BME280;43426;43.594;24.334;2023-09-12T06:02:24;101246.88;;;19.36;57.90
57600;BME280;43426;43.594;24.334;2023-09-12T06:04:50;101256.03;;;19.62;57.04
57600;BME280;43426;43.594;24.334;2023-09-12T06:07:15;101253.41;;;19.87;55.50
57600;BME280;43426;43.594;24.334;2023-09-12T06:09:40;101258.59;;;19.96;53.75
57600;BME280;43426;43.594;24.334;2023-09-12T06:12:06;101255.66;;;20.22;54.55
57600;BME280;43426;43.594;24.334;2023-09-12T06:14:31;101253.50;;;20.56;53.34
57600;BME280;43426;43.594;24.334;2023-09-12T06:16:56;101259.78;;;20.82;52.73
57600;BME280;43426;43.594;24.334;2023-09-12T06:19:22;101257.38;;;21.11;52.31
57600;BME280;43426;43.594;24.334;2023-09-12T06:21:47;101268.13;;;21.31;50.71
57600;BME280;43426;43.594;24.334;2023-09-12T06:24:16;101267.44;;;21.54;50.57
57600;BME280;43426;43.594;24.334;2023-09-12T06:26:41;101267.66;;;21.83;49.72
57600;BME280;43426;43.594;24.334;2023-09-12T06:29:07;101266.19;;;22.11;48.51
57600;BME280;43426;43.594;24.334;2023-09-12T06:31:32;101272.53;;;22.42;47.89
57600;BME280;43426;43.594;24.334;2023-09-12T06:33:58;101275.50;;;22.76;47.50
57600;BME280;43426;43.594;24.334;2023-09-12T06:36:26;101281.84;;;23.12;46.35
57600;BME280;43426;43.594;24.334;2023-09-12T06:38:55;101276.75;;;23.44;43.12
57600;BME280;43426;43.594;24.334;2023-09-12T06:41:20;101272.19;;;23.50;43.22
57600;BME280;43426;43.594;24.334;2023-09-12T06:43:45;101276.91;;;23.67;42.10
57600;BME280;43426;43.594;24.334;2023-09-12T06:46:11;101265.66;;;23.68;42.91
57600;BME280;43426;43.594;24.334;2023-09-12T06:48:36;101277.84;;;23.72;44.08
57600;BME280;43426;43.594;24.334;2023-09-12T06:51:04;101273.53;;;24.05;43.02
57600;BME280;43426;43.594;24.334;2023-09-12T06:53:30;101278.53;;;24.42;41.76
57600;BME280;43426;43.594;24.334;2023-09-12T06:55:55;101275.81;;;24.76;41.01
57600;BME280;43426;43.594;24.334;2023-09-12T06:58:22;101273.09;;;24.98;40.10
57600;BME280;43426;43.594;24.334;2023-09-12T07:00:47;101272.00;;;25.22;40.29
57600;BME280;43426;43.594;24.334;2023-09-12T07:03:13;101262.53;;;25.35;39.71
57600;BME280;43426;43.594;24.334;2023-09-12T07:05:38;101275.34;;;25.68;38.00
57600;BME280;43426;43.594;24.334;2023-09-12T07:08:07;101275.28;;;25.90;38.00
57600;BME280;43426;43.594;24.334;2023-09-12T07:10:33;101279.69;;;25.86;38.08
57600;BME280;43426;43.594;24.334;2023-09-12T07:12:59;101269.94;;;26.06;37.78
57600;BME280;43426;43.594;24.334;2023-09-12T07:15:24;101273.69;;;26.22;37.77
57600;BME280;43426;43.594;24.334;2023-09-12T07:17:49;101269.75;;;26.45;36.95
57600;BME280;43426;43.594;24.334;2023-09-12T07:20:14;101275.53;;;26.43;36.45
57600;BME280;43426;43.594;24.334;2023-09-12T07:22:41;101275.56;;;26.48;35.76
57600;BME280;43426;43.594;24.334;2023-09-12T07:25:06;101279.56;;;26.68;36.37
57600;BME280;43426;43.594;24.334;2023-09-12T07:27:32;101278.38;;;26.91;35.43
57600;BME280;43426;43.594;24.334;2023-09-12T07:29:57;101272.34;;;27.05;34.34
57600;BME280;43426;43.594;24.334;2023-09-12T07:32:22;101271.56;;;27.14;34.93
57600;BME280;43426;43.594;24.334;2023-09-12T07:34:50;101272.84;;;27.44;34.32
57600;BME280;43426;43.594;24.334;2023-09-12T07:37:15;101268.19;;;27.65;32.93
57600;BME280;43426;43.594;24.334;2023-09-12T07:39:40;101263.78;;;27.85;32.95
57600;BME280;43426;43.594;24.334;2023-09-12T07:42:06;101269.84;;;27.72;33.54
57600;BME280;43426;43.594;24.334;2023-09-12T07:44:31;101273.47;;;27.93;33.80
57600;BME280;43426;43.594;24.334;2023-09-12T07:46:57;101266.56;;;27.95;32.47
57600;BME280;43426;43.594;24.334;2023-09-12T07:49:22;101265.78;;;28.10;31.94
57600;BME280;43426;43.594;24.334;2023-09-12T07:51:49;101260.50;;;28.24;33.28
57600;BME280;43426;43.594;24.334;2023-09-12T07:54:14;101259.41;;;28.51;32.74
57600;BME280;43426;43.594;24.334;2023-09-12T07:56:40;101259.91;;;28.84;31.79
57600;BME280;43426;43.594;24.334;2023-09-12T07:59:05;101255.63;;;29.17;31.97
57600;BME280;43426;43.594;24.334;2023-09-12T08:01:30;101257.72;;;29.51;31.68
57600;BME280;43426;43.594;24.334;2023-09-12T08:03:55;101254.91;;;30.01;31.79
57600;BME280;43426;43.594;24.334;2023-09-12T08:06:22;101255.81;;;30.26;29.57
57600;BME280;43426;43.594;24.334;2023-09-12T08:08:49;101250.56;;;30.54;30.07
57600;BME280;43426;43.594;24.334;2023-09-12T08:11:14;101250.75;;;30.92;28.78
57600;BME280;43426;43.594;24.334;2023-09-12T08:13:39;101254.53;;;31.26;28.79
57600;BME280;43426;43.594;24.334;2023-09-12T08:16:05;101249.66;;;31.36;28.83
57600;BME280;43426;43.594;24.334;2023-09-12T08:18:30;101249.19;;;31.48;28.28
57600;BME280;43426;43.594;24.334;2023-09-12T08:20:56;101250.16;;;31.63;27.62
57600;BME280;43426;43.594;24.334;2023-09-12T08:23:21;101249.69;;;31.74;28.28
57600;BME280;43426;43.594;24.334;2023-09-12T08:25:46;101250.59;;;31.70;27.54
57600;BME280;43426;43.594;24.334;2023-09-12T08:28:12;101248.25;;;31.77;27.47
57600;BME280;43426;43.594;24.334;2023-09-12T08:30:37;101244.91;;;31.94;27.38
57600;BME280;43426;43.594;24.334;2023-09-12T08:33:02;101252.28;;;32.23;27.31
57600;BME280;43426;43.594;24.334;2023-09-12T08:35:28;101236.13;;;32.53;27.01
57600;BME280;43426;43.594;24.334;2023-09-12T08:37:54;101240.41;;;32.78;26.54
57600;BME280;43426;43.594;24.334;2023-09-12T08:40:19;101230.75;;;32.98;25.58
57600;BME280;43426;43.594;24.334;2023-09-12T08:42:45;101240.38;;;32.64;25.79
57600;BME280;43426;43.594;24.334;2023-09-12T08:45:13;101232.97;;;32.73;26.10
57600;BME280;43426;43.594;24.334;2023-09-12T08:47:42;101230.56;;;32.95;25.80
57600;BME280;43426;43.594;24.334;2023-09-12T08:50:09;101234.41;;;32.85;25.33
57600;BME280;43426;43.594;24.334;2023-09-12T08:52:35;101227.75;;;33.08;25.72
57600;BME280;43426;43.594;24.334;2023-09-12T08:55:01;101222.47;;;33.35;24.32
57600;BME280;43426;43.594;24.334;2023-09-12T08:57:26;101224.59;;;33.52;25.59
57600;BME280;43426;43.594;24.334;2023-09-12T08:59:52;101218.94;;;33.80;25.10
57600;BME280;43426;43.594;24.334;2023-09-12T09:02:18;101219.88;;;33.98;24.88
57600;BME280;43426;43.594;24.334;2023-09-12T09:04:44;101213.38;;;34.34;24.65
57600;BME280;43426;43.594;24.334;2023-09-12T09:07:11;101216.59;;;34.50;24.20
57600;BME280;43426;43.594;24.334;2023-09-12T09:09:38;101214.56;;;34.73;23.72
57600;BME280;43426;43.594;24.334;2023-09-12T09:12:06;101209.59;;;35.19;22.95
57600;BME280;43426;43.594;24.334;2023-09-12T09:14:31;101207.47;;;35.42;24.02
57600;BME280;43426;43.594;24.334;2023-09-12T09:16:57;101208.16;;;35.48;21.86
57600;BME280;43426;43.594;24.334;2023-09-12T09:19:23;101205.34;;;35.56;22.60
57600;BME280;43426;43.594;24.334;2023-09-12T09:22:04;101207.16;;;35.96;22.41
57600;BME280;43426;43.594;24.334;2023-09-12T09:24:30;101203.88;;;35.59;21.48
57600;BME280;43426;43.594;24.334;2023-09-12T09:26:58;101205.38;;;34.81;22.05
57600;BME280;43426;43.594;24.334;2023-09-12T09:29:26;101198.06;;;34.71;22.08
57600;BME280;43426;43.594;24.334;2023-09-12T09:31:51;101200.69;;;34.68;22.73
57600;BME280;43426;43.594;24.334;2023-09-12T09:34:18;101196.53;;;34.56;22.72
57600;BME280;43426;43.594;24.334;2023-09-12T09:36:44;101188.81;;;34.79;23.18
57600;BME280;43426;43.594;24.334;2023-09-12T09:39:09;101189.91;;;35.01;23.02
57600;BME280;43426;43.594;24.334;2023-09-12T09:41:35;101182.81;;;35.12;22.48
57600;BME280;43426;43.594;24.334;2023-09-12T09:44:01;101188.28;;;35.26;22.13
57600;BME280;43426;43.594;24.334;2023-09-12T09:46:28;101184.56;;;35.31;21.76
57600;BME280;43426;43.594;24.334;2023-09-12T09:48:54;101188.75;;;35.02;22.12
57600;BME280;43426;43.594;24.334;2023-09-12T09:51:19;101181.81;;;34.91;21.71
57600;BME280;43426;43.594;24.334;2023-09-12T09:53:44;101182.53;;;34.65;22.75
57600;BME280;43426;43.594;24.334;2023-09-12T09:56:13;101183.34;;;34.66;22.72
57600;BME280;43426;43.594;24.334;2023-09-12T09:58:48;101180.50;;;34.97;21.83
57600;BME280;43426;43.594;24.334;2023-09-12T10:01:17;101173.94;;;35.28;22.27
57600;BME280;43426;43.594;24.334;2023-09-12T10:03:43;101178.28;;;35.60;22.17
57600;BME280;43426;43.594;24.334;2023-09-12T10:06:13;101164.22;;;35.87;22.24
57600;BME280;43426;43.594;24.334;2023-09-12T10:08:39;101172.72;;;36.25;21.67
57600;BME280;43426;43.594;24.334;2023-09-12T10:11:05;101172.03;;;36.37;21.32
57600;BME280;43426;43.594;24.334;2023-09-12T10:13:32;101165.50;;;36.54;21.33
57600;BME280;43426;43.594;24.334;2023-09-12T10:15:58;101165.56;;;36.75;19.50
57600;BME280;43426;43.594;24.334;2023-09-12T10:18:25;101164.03;;;36.87;20.37
57600;BME280;43426;43.594;24.334;2023-09-12T10:21:04;101163.78;;;37.01;20.66
57600;BME280;43426;43.594;24.334;2023-09-12T10:25:58;101157.78;;;37.02;18.58
57600;BME280;43426;43.594;24.334;2023-09-12T10:28:24;101154.53;;;36.23;19.87
57600;BME280;43426;43.594;24.334;2023-09-12T10:30:50;101150.66;;;35.89;21.26
57600;BME280;43426;43.594;24.334;2023-09-12T10:33:16;101143.66;;;36.12;21.25
57600;BME280;43426;43.594;24.334;2023-09-12T10:35:42;101145.84;;;36.45;21.03
57600;BME280;43426;43.594;24.334;2023-09-12T10:38:09;101149.97;;;36.87;19.96
57600;BME280;43426;43.594;24.334;2023-09-12T10:40:36;101138.06;;;37.11;19.70
57600;BME280;43426;43.594;24.334;2023-09-12T10:43:01;101145.03;;;37.26;19.11
57600;BME280;43426;43.594;24.334;2023-09-12T10:45:31;101134.19;;;37.15;19.85
57600;BME280;43426;43.594;24.334;2023-09-12T10:47:56;101138.44;;;37.22;19.96
57600;BME280;43426;43.594;24.334;2023-09-12T10:50:22;101133.31;;;37.45;20.41
57600;BME280;43426;43.594;24.334;2023-09-12T10:52:51;101132.59;;;37.69;19.53
57600;BME280;43426;43.594;24.334;2023-09-12T10:55:17;101124.06;;;37.78;18.79
57600;BME280;43426;43.594;24.334;2023-09-12T10:58:25;101131.81;;;37.47;18.44
57600;BME280;43426;43.594;24.334;2023-09-12T11:00:32;101122.94;;;37.15;18.64
57600;BME280;43426;43.594;24.334;2023-09-12T11:05:50;101118.69;;;36.20;19.82
57600;BME280;43426;43.594;24.334;2023-09-12T11:08:17;101117.16;;;36.61;20.67
57600;BME280;43426;43.594;24.334;2023-09-12T11:10:42;101111.63;;;36.73;20.11
57600;BME280;43426;43.594;24.334;2023-09-12T11:13:07;101112.25;;;36.79;20.02
57600;BME280;43426;43.594;24.334;2023-09-12T11:15:41;101112.31;;;36.70;20.30
57600;BME280;43426;43.594;24.334;2023-09-12T11:18:28;101113.25;;;37.25;19.57
57600;BME280;43426;43.594;24.334;2023-09-12T11:21:00;101104.66;;;37.64;20.27
57600;BME280;43426;43.594;24.334;2023-09-12T11:23:28;101104.84;;;37.92;18.47
57600;BME280;43426;43.594;24.334;2023-09-12T11:28:48;101094.94;;;37.40;19.45
57600;BME280;43426;43.594;24.334;2023-09-12T11:31:23;101101.56;;;37.90;18.96
57600;BME280;43426;43.594;24.334;2023-09-12T11:33:49;101093.94;;;38.03;18.11
57600;BME280;43426;43.594;24.334;2023-09-12T11:36:15;101095.25;;;38.18;18.06
57600;BME280;43426;43.594;24.334;2023-09-12T11:38:40;101094.56;;;38.33;18.32
57600;BME280;43426;43.594;24.334;2023-09-12T11:41:05;101084.00;;;38.43;18.14
57600;BME280;43426;43.594;24.334;2023-09-12T11:43:30;101089.03;;;38.12;18.04
57600;BME280;43426;43.594;24.334;2023-09-12T11:45:57;101080.63;;;37.45;19.19
57600;BME280;43426;43.594;24.334;2023-09-12T11:48:23;101090.69;;;37.34;19.40
57600;BME280;43426;43.594;24.334;2023-09-12T11:50:55;101089.06;;;37.33;19.76
57600;BME280;43426;43.594;24.334;2023-09-12T11:53:22;101079.06;;;37.57;19.54
57600;BME280;43426;43.594;24.334;2023-09-12T11:55:59;101084.28;;;37.79;19.69
57600;BME280;43426;43.594;24.334;2023-09-12T11:58:25;101083.94;;;37.93;19.20
57600;BME280;43426;43.594;24.334;2023-09-12T12:00:52;101082.22;;;38.38;18.19
57600;BME280;43426;43.594;24.334;2023-09-12T12:03:19;101079.03;;;38.64;18.49
57600;BME280;43426;43.594;24.334;2023-09-12T12:05:45;101081.84;;;38.77;17.51
57600;BME280;43426;43.594;24.334;2023-09-12T12:08:13;101069.44;;;38.41;17.73
57600;BME280;43426;43.594;24.334;2023-09-12T12:10:39;101073.53;;;38.43;17.92
57600;BME280;43426;43.594;24.334;2023-09-12T12:13:26;101074.44;;;37.98;17.53
57600;BME280;43426;43.594;24.334;2023-09-12T12:15:52;101063.19;;;37.52;18.80
57600;BME280;43426;43.594;24.334;2023-09-12T12:18:18;101065.03;;;37.81;18.44
57600;BME280;43426;43.594;24.334;2023-09-12T12:20:43;101063.44;;;38.05;18.30
57600;BME280;43426;43.594;24.334;2023-09-12T12:23:08;101054.28;;;38.45;18.42
57600;BME280;43426;43.594;24.334;2023-09-12T12:25:34;101059.09;;;38.32;17.63
57600;BME280;43426;43.594;24.334;2023-09-12T12:28:00;101052.16;;;37.93;17.45
57600;BME280;43426;43.594;24.334;2023-09-12T12:30:29;101053.84;;;37.73;18.62
57600;BME280;43426;43.594;24.334;2023-09-12T12:32:55;101049.22;;;37.43;18.81
57600;BME280;43426;43.594;24.334;2023-09-12T12:35:20;101040.41;;;37.45;18.50
57600;BME280;43426;43.594;24.334;2023-09-12T12:37:47;101050.16;;;37.47;18.53
57600;BME280;43426;43.594;24.334;2023-09-12T12:40:13;101046.16;;;37.36;17.94
57600;BME280;43426;43.594;24.334;2023-09-12T12:42:39;101048.75;;;37.20;18.02
57600;BME280;43426;43.594;24.334;2023-09-12T12:47:38;101051.72;;;37.70;19.66
57600;BME280;43426;43.594;24.334;2023-09-12T12:50:07;101046.97;;;38.20;19.21